sensor_id;sensor_type;location;lat;lon;timestamp;pressure;altitude;pressure_sealevel;temperature;humidity
28648;BME280;17137;51.494;-0.262;2023-04-30T00:00:22;50235.69;;;-145.72;76.03
28648;BME280;17137;51.494;-0.262;2023-04-30T00:00:52;50230.27;;;-145.72;75.84
28648;BME280;17137;51.494;-0.262;2023-04-30T00:01:27;50231.87;;;-145.72;75.92
28648;BME280;17137;51.494;-0.262;2023-04-30T00:01:58;50239.76;;;-145.72;75.89
28648;BME280;17137;51.494;-0.262;2023-04-30T00:02:28;50228.67;;;-145.72;75.75
28648;BME280;17137;51.494;-0.262;2023-04-30T00:02:58;50241.24;;;-145.72;75.97
28648;BME280;17137;51.494;-0.262;2023-04-30T00:03:28;50240.87;;;-145.72;76.32
28648;BME280;17137;51.494;-0.262;2023-04-30T00:03:59;50236.93;;;-145.72;76.26
28648;BME280;17137;51.494;-0.262;2023-04-30T00:04:29;50243.83;;;-145.72;76.63
28648;BME280;17137;51.494;-0.262;2023-04-30T00:04:59;50246.67;;;-145.72;76.69
28648;BME280;17137;51.494;-0.262;2023-04-30T00:05:30;50252.09;;;-145.72;76.76
28648;BME280;17137;51.494;-0.262;2023-04-30T00:06:00;50257.39;;;-145.72;77.21
28648;BME280;17137;51.494;-0.262;2023-04-30T00:06:30;50256.65;;;-145.72;77.33
28648;BME280;17137;51.494;-0.262;2023-04-30T00:07:00;50250.73;;;-145.72;77.47
28648;BME280;17137;51.494;-0.262;2023-04-30T00:07:31;50241.73;;;-145.72;77.25
28648;BME280;17137;51.494;-0.262;2023-04-30T00:08:01;50249.25;;;-145.72;76.91
28648;BME280;17137;51.494;-0.262;2023-04-30T00:08:31;50252.34;;;-145.72;76.82
28648;BME280;17137;51.494;-0.262;2023-04-30T00:09:02;50251.97;;;-145.72;77.03
28648;BME280;17137;51.494;-0.262;2023-04-30T00:09:32;50259.73;;;-145.72;77.79
28648;BME280;17137;51.494;-0.262;2023-04-30T00:10:03;50268.36;;;-145.72;78.28
28648;BME280;17137;51.494;-0.262;2023-04-30T00:10:33;50250.98;;;-145.72;77.63
28648;BME280;17137;51.494;-0.262;2023-04-30T00:11:03;50245.43;;;-145.72;77.01
28648;BME280;17137;51.494;-0.262;2023-04-30T00:11:34;50253.32;;;-145.72;76.97
28648;BME280;17137;51.494;-0.262;2023-04-30T00:12:04;50248.51;;;-145.72;76.84
28648;BME280;17137;51.494;-0.262;2023-04-30T00:12:35;50250.73;;;-145.72;76.83
28648;BME280;17137;51.494;-0.262;2023-04-30T00:13:05;50252.83;;;-145.72;77.00
28648;BME280;17137;51.494;-0.262;2023-04-30T00:13:35;50270.70;;;-145.72;77.67
28648;BME280;17137;51.494;-0.262;2023-04-30T00:14:05;50262.32;;;-145.72;77.92
28648;BME280;17137;51.494;-0.262;2023-04-30T00:14:36;50260.35;;;-145.72;77.95
28648;BME280;17137;51.494;-0.262;2023-04-30T00:15:07;50265.16;;;-145.72;79.43
28648;BME280;17137;51.494;-0.262;2023-04-30T00:15:37;50263.06;;;-145.72;79.32
28648;BME280;17137;51.494;-0.262;2023-04-30T00:16:07;50262.07;;;-145.72;79.16
28648;BME280;17137;51.494;-0.262;2023-04-30T00:16:38;50268.98;;;-145.72;78.95
28648;BME280;17137;51.494;-0.262;2023-04-30T00:17:08;50264.66;;;-145.72;79.65
28648;BME280;17137;51.494;-0.262;2023-04-30T00:17:38;50270.70;;;-145.72;79.22
28648;BME280;17137;51.494;-0.262;2023-04-30T00:18:09;50265.40;;;-145.72;79.51
28648;BME280;17137;51.494;-0.262;2023-04-30T00:18:39;50268.61;;;-145.72;79.71
28648;BME280;17137;51.494;-0.262;2023-04-30T00:19:09;50272.18;;;-145.72;79.50
28648;BME280;17137;51.494;-0.262;2023-04-30T00:19:40;50275.76;;;-145.72;79.20
28648;BME280;17137;51.494;-0.262;2023-04-30T00:20:11;50267.50;;;-145.72;79.38
28648;BME280;17137;51.494;-0.262;2023-04-30T00:20:41;50270.95;;;-145.72;79.71
28648;BME280;17137;51.494;-0.262;2023-04-30T00:21:11;50269.47;;;-145.72;80.27
28648;BME280;17137;51.494;-0.262;2023-04-30T00:21:42;50269.96;;;-145.72;79.89
28648;BME280;17137;51.494;-0.262;2023-04-30T00:22:12;50270.83;;;-145.72;79.81
28648;BME280;17137;51.494;-0.262;2023-04-30T00:22:42;50284.39;;;-145.72;80.27
28648;BME280;17137;51.494;-0.262;2023-04-30T00:23:13;50272.67;;;-145.72;80.35
28648;BME280;17137;51.494;-0.262;2023-04-30T00:23:43;50267.13;;;-145.72;80.05
28648;BME280;17137;51.494;-0.262;2023-04-30T00:24:13;50275.26;;;-145.72;80.26
28648;BME280;17137;51.494;-0.262;2023-04-30T00:24:43;50280.69;;;-145.72;80.32
28648;BME280;17137;51.494;-0.262;2023-04-30T00:25:14;50271.20;;;-145.72;79.85
28648;BME280;17137;51.494;-0.262;2023-04-30T00:25:44;50282.41;;;-145.72;79.79
28648;BME280;17137;51.494;-0.262;2023-04-30T00:26:14;50278.47;;;-145.72;80.00
28648;BME280;17137;51.494;-0.262;2023-04-30T00:26:45;50271.81;;;-145.72;79.86
28648;BME280;17137;51.494;-0.262;2023-04-30T00:27:15;50281.80;;;-145.72;79.80
28648;BME280;17137;51.494;-0.262;2023-04-30T00:27:50;50290.67;;;-145.72;79.67
28648;BME280;17137;51.494;-0.262;2023-04-30T00:28:20;50270.70;;;-145.72;79.58
28648;BME280;17137;51.494;-0.262;2023-04-30T00:28:51;50276.50;;;-145.72;79.80
28648;BME280;17137;51.494;-0.262;2023-04-30T00:29:21;50265.65;;;-145.72;79.79
28648;BME280;17137;51.494;-0.262;2023-04-30T00:29:51;50281.67;;;-145.72;80.56
28648;BME280;17137;51.494;-0.262;2023-04-30T00:30:21;50282.04;;;-145.72;80.75
28648;BME280;17137;51.494;-0.262;2023-04-30T00:30:52;50284.63;;;-145.72;81.13
28648;BME280;17137;51.494;-0.262;2023-04-30T00:31:22;50280.69;;;-145.72;81.26
28648;BME280;17137;51.494;-0.262;2023-04-30T00:31:52;50282.41;;;-145.72;80.85
28648;BME280;17137;51.494;-0.262;2023-04-30T00:32:23;50278.10;;;-145.72;80.77
28648;BME280;17137;51.494;-0.262;2023-04-30T00:32:53;50274.77;;;-145.72;80.38
28648;BME280;17137;51.494;-0.262;2023-04-30T00:33:23;50278.71;;;-145.72;80.45
28648;BME280;17137;51.494;-0.262;2023-04-30T00:33:54;50272.80;;;-145.72;80.13
28648;BME280;17137;51.494;-0.262;2023-04-30T00:34:24;50279.58;;;-145.72;80.09
28648;BME280;17137;51.494;-0.262;2023-04-30T00:34:54;50297.21;;;-145.72;80.22
28648;BME280;17137;51.494;-0.262;2023-04-30T00:35:24;50281.43;;;-145.72;80.11
28648;BME280;17137;51.494;-0.262;2023-04-30T00:35:55;50281.43;;;-145.72;79.78
28648;BME280;17137;51.494;-0.262;2023-04-30T00:36:26;50292.52;;;-145.72;79.66
28648;BME280;17137;51.494;-0.262;2023-04-30T00:36:56;50279.21;;;-145.72;79.41
28648;BME280;17137;51.494;-0.262;2023-04-30T00:37:26;50275.76;;;-145.72;79.38
28648;BME280;17137;51.494;-0.262;2023-04-30T00:37:56;50276.99;;;-145.72;79.51
28648;BME280;17137;51.494;-0.262;2023-04-30T00:38:27;50278.10;;;-145.72;79.56
28648;BME280;17137;51.494;-0.262;2023-04-30T00:38:57;50289.32;;;-145.72;79.71
28648;BME280;17137;51.494;-0.262;2023-04-30T00:39:27;50275.02;;;-145.72;79.32
28648;BME280;17137;51.494;-0.262;2023-04-30T00:39:57;50262.81;;;-145.72;79.14
28648;BME280;17137;51.494;-0.262;2023-04-30T00:40:28;50280.56;;;-145.72;79.02
28648;BME280;17137;51.494;-0.262;2023-04-30T00:40:58;50283.40;;;-145.72;78.89
28648;BME280;17137;51.494;-0.262;2023-04-30T00:41:29;50274.77;;;-145.72;78.77
28648;BME280;17137;51.494;-0.262;2023-04-30T00:42:05;50273.66;;;-145.72;78.84
28648;BME280;17137;51.494;-0.262;2023-04-30T00:42:35;50277.61;;;-145.72;78.87
28648;BME280;17137;51.494;-0.262;2023-04-30T00:43:06;50280.69;;;-145.72;79.40
28648;BME280;17137;51.494;-0.262;2023-04-30T00:43:36;50295.60;;;-145.72;79.45
28648;BME280;17137;51.494;-0.262;2023-04-30T00:44:07;50290.43;;;-145.72;79.29
28648;BME280;17137;51.494;-0.262;2023-04-30T00:44:38;50275.26;;;-145.72;79.37
28648;BME280;17137;51.494;-0.262;2023-04-30T00:45:09;50282.29;;;-145.72;79.81
28648;BME280;17137;51.494;-0.262;2023-04-30T00:45:39;50294.86;;;-145.72;80.28
28648;BME280;17137;51.494;-0.262;2023-04-30T00:46:09;50288.45;;;-145.72;80.12
28648;BME280;17137;51.494;-0.262;2023-04-30T00:46:39;50283.77;;;-145.72;79.83
28648;BME280;17137;51.494;-0.262;2023-04-30T00:47:10;50287.84;;;-145.72;79.58
28648;BME280;17137;51.494;-0.262;2023-04-30T00:47:40;50280.93;;;-145.72;79.34
28648;BME280;17137;51.494;-0.262;2023-04-30T00:48:10;50286.73;;;-145.72;79.96
28648;BME280;17137;51.494;-0.262;2023-04-30T00:48:41;50303.62;;;-145.72;79.93
28648;BME280;17137;51.494;-0.262;2023-04-30T00:49:11;50285.12;;;-145.72;79.71
28648;BME280;17137;51.494;-0.262;2023-04-30T00:49:41;50295.11;;;-145.72;79.44
28648;BME280;17137;51.494;-0.262;2023-04-30T00:50:12;50276.13;;;-145.72;79.31
28648;BME280;17137;51.494;-0.262;2023-04-30T00:50:43;50280.56;;;-145.72;79.29
28648;BME280;17137;51.494;-0.262;2023-04-30T00:51:14;50282.41;;;-145.72;79.17
28648;BME280;17137;51.494;-0.262;2023-04-30T00:51:44;50284.14;;;-145.72;79.46
28648;BME280;17137;51.494;-0.262;2023-04-30T00:52:15;50283.28;;;-145.72;79.87
28648;BME280;17137;51.494;-0.262;2023-04-30T00:52:45;50281.06;;;-145.72;79.65
28648;BME280;17137;51.494;-0.262;2023-04-30T00:53:16;50282.66;;;-145.72;79.71
28648;BME280;17137;51.494;-0.262;2023-04-30T00:53:46;50292.77;;;-145.72;79.63
28648;BME280;17137;51.494;-0.262;2023-04-30T00:54:18;50283.28;;;-145.72;79.66
28648;BME280;17137;51.494;-0.262;2023-04-30T00:54:49;50281.92;;;-145.72;79.53
28648;BME280;17137;51.494;-0.262;2023-04-30T00:55:19;50296.84;;;-145.72;79.27
28648;BME280;17137;51.494;-0.262;2023-04-30T00:55:50;50283.77;;;-145.72;79.02
28648;BME280;17137;51.494;-0.262;2023-04-30T00:56:20;50285.37;;;-145.72;78.72
28648;BME280;17137;51.494;-0.262;2023-04-30T00:56:51;50295.60;;;-145.72;79.13
28648;BME280;17137;51.494;-0.262;2023-04-30T00:57:21;50285.99;;;-145.72;79.22
28648;BME280;17137;51.494;-0.262;2023-04-30T00:57:53;50292.52;;;-145.72;79.30
28648;BME280;17137;51.494;-0.262;2023-04-30T00:58:23;50282.66;;;-145.72;78.87
28648;BME280;17137;51.494;-0.262;2023-04-30T00:58:54;50289.69;;;-145.72;78.93
28648;BME280;17137;51.494;-0.262;2023-04-30T00:59:25;50282.29;;;-145.72;78.86
28648;BME280;17137;51.494;-0.262;2023-04-30T00:59:56;50281.55;;;-145.72;78.52
28648;BME280;17137;51.494;-0.262;2023-04-30T01:00:27;50279.82;;;-145.72;78.41
28648;BME280;17137;51.494;-0.262;2023-04-30T01:00:57;50278.96;;;-145.72;78.49
28648;BME280;17137;51.494;-0.262;2023-04-30T01:01:28;50297.70;;;-145.72;78.84
28648;BME280;17137;51.494;-0.262;2023-04-30T01:01:59;50297.82;;;-145.72;79.88
28648;BME280;17137;51.494;-0.262;2023-04-30T01:02:30;50304.97;;;-145.72;79.95
28648;BME280;17137;51.494;-0.262;2023-04-30T01:03:01;50297.21;;;-145.72;80.19
28648;BME280;17137;51.494;-0.262;2023-04-30T01:03:31;50290.55;;;-145.72;79.97
28648;BME280;17137;51.494;-0.262;2023-04-30T01:04:01;50293.51;;;-145.72;79.89
28648;BME280;17137;51.494;-0.262;2023-04-30T01:04:32;50295.11;;;-145.72;79.69
28648;BME280;17137;51.494;-0.262;2023-04-30T01:05:02;50285.12;;;-145.72;79.51
28648;BME280;17137;51.494;-0.262;2023-04-30T01:05:33;50287.84;;;-145.72;79.36
28648;BME280;17137;51.494;-0.262;2023-04-30T01:06:03;50306.08;;;-145.72;79.77
28648;BME280;17137;51.494;-0.262;2023-04-30T01:06:33;50290.80;;;-145.72;79.86
28648;BME280;17137;51.494;-0.262;2023-04-30T01:07:04;50289.32;;;-145.72;79.95
28648;BME280;17137;51.494;-0.262;2023-04-30T01:07:35;50285.74;;;-145.72;79.69
28648;BME280;17137;51.494;-0.262;2023-04-30T01:08:07;50281.18;;;-145.72;79.64
28648;BME280;17137;51.494;-0.262;2023-04-30T01:08:38;50299.18;;;-145.72;79.70
28648;BME280;17137;51.494;-0.262;2023-04-30T01:09:08;50300.16;;;-145.72;79.62
28648;BME280;17137;51.494;-0.262;2023-04-30T01:09:39;50299.55;;;-145.72;79.48
28648;BME280;17137;51.494;-0.262;2023-04-30T01:10:10;50294.12;;;-145.72;79.27
28648;BME280;17137;51.494;-0.262;2023-04-30T01:10:47;50293.26;;;-145.72;79.33
28648;BME280;17137;51.494;-0.262;2023-04-30T01:11:25;50300.78;;;-145.72;79.35
28648;BME280;17137;51.494;-0.262;2023-04-30T01:12:07;50307.56;;;-145.72;78.94
28648;BME280;17137;51.494;-0.262;2023-04-30T01:12:45;50298.19;;;-145.72;79.05
28648;BME280;17137;51.494;-0.262;2023-04-30T01:13:25;50302.38;;;-145.72;79.13
28648;BME280;17137;51.494;-0.262;2023-04-30T01:14:03;50284.26;;;-145.72;79.54
28648;BME280;17137;51.494;-0.262;2023-04-30T01:14:49;50302.75;;;-145.72;79.55
28648;BME280;17137;51.494;-0.262;2023-04-30T01:15:26;50304.35;;;-145.72;79.31
28648;BME280;17137;51.494;-0.262;2023-04-30T01:16:01;50304.97;;;-145.72;79.46
28648;BME280;17137;51.494;-0.262;2023-04-30T01:16:42;50296.71;;;-145.72;79.26
28648;BME280;17137;51.494;-0.262;2023-04-30T01:17:22;50315.57;;;-145.72;79.85
28648;BME280;17137;51.494;-0.262;2023-04-30T01:18:03;50306.82;;;-145.72;80.09
28648;BME280;17137;51.494;-0.262;2023-04-30T01:18:40;50306.82;;;-145.72;80.24
28648;BME280;17137;51.494;-0.262;2023-04-30T01:19:35;50287.96;;;-145.72;79.89
28648;BME280;17137;51.494;-0.262;2023-04-30T01:20:09;50293.75;;;-145.72;79.39
28648;BME280;17137;51.494;-0.262;2023-04-30T01:20:48;50288.70;;;-145.72;79.18
28648;BME280;17137;51.494;-0.262;2023-04-30T01:21:19;50297.21;;;-145.72;79.16
28648;BME280;17137;51.494;-0.262;2023-04-30T01:21:57;50299.30;;;-145.72;78.95
28648;BME280;17137;51.494;-0.262;2023-04-30T01:22:35;50300.16;;;-145.72;79.48
28648;BME280;17137;51.494;-0.262;2023-04-30T01:23:17;50295.97;;;-145.72;79.58
28648;BME280;17137;51.494;-0.262;2023-04-30T01:24:05;50293.63;;;-145.72;79.27
28648;BME280;17137;51.494;-0.262;2023-04-30T01:24:58;50300.29;;;-145.72;79.91
28648;BME280;17137;51.494;-0.262;2023-04-30T01:25:46;50300.66;;;-145.72;80.93
28648;BME280;17137;51.494;-0.262;2023-04-30T01:26:33;50313.23;;;-145.72;80.84
28648;BME280;17137;51.494;-0.262;2023-04-30T01:27:21;50307.44;;;-145.72;80.73
28648;BME280;17137;51.494;-0.262;2023-04-30T01:28:00;50305.09;;;-145.72;80.31
28648;BME280;17137;51.494;-0.262;2023-04-30T01:28:31;50304.23;;;-145.72;79.99
28648;BME280;17137;51.494;-0.262;2023-04-30T01:29:09;50304.60;;;-145.72;80.07
28648;BME280;17137;51.494;-0.262;2023-04-30T01:29:41;50301.40;;;-145.72;79.96
28648;BME280;17137;51.494;-0.262;2023-04-30T01:30:12;50309.90;;;-145.72;80.28
28648;BME280;17137;51.494;-0.262;2023-04-30T01:30:43;50299.67;;;-145.72;80.00
28648;BME280;17137;51.494;-0.262;2023-04-30T01:31:14;50303.37;;;-145.72;79.89
28648;BME280;17137;51.494;-0.262;2023-04-30T01:31:46;50299.55;;;-145.72;79.85
28648;BME280;17137;51.494;-0.262;2023-04-30T01:32:17;50306.33;;;-145.72;80.00
28648;BME280;17137;51.494;-0.262;2023-04-30T01:32:47;50292.15;;;-145.72;79.93
28648;BME280;17137;51.494;-0.262;2023-04-30T01:33:17;50306.45;;;-145.72;79.86
28648;BME280;17137;51.494;-0.262;2023-04-30T01:33:47;50304.97;;;-145.72;79.90
28648;BME280;17137;51.494;-0.262;2023-04-30T01:34:18;50299.05;;;-145.72;79.89
28648;BME280;17137;51.494;-0.262;2023-04-30T01:34:48;50305.22;;;-145.72;79.77
28648;BME280;17137;51.494;-0.262;2023-04-30T01:35:18;50300.29;;;-145.72;79.81
28648;BME280;17137;51.494;-0.262;2023-04-30T01:36:02;50298.19;;;-145.72;79.78
28648;BME280;17137;51.494;-0.262;2023-04-30T01:36:48;50302.75;;;-145.72;80.06
28648;BME280;17137;51.494;-0.262;2023-04-30T01:37:26;50308.18;;;-145.72;80.01
28648;BME280;17137;51.494;-0.262;2023-04-30T01:38:09;50300.41;;;-145.72;80.48
28648;BME280;17137;51.494;-0.262;2023-04-30T01:39:00;50303.25;;;-145.72;80.12
28648;BME280;17137;51.494;-0.262;2023-04-30T01:39:43;50313.11;;;-145.72;81.24
28648;BME280;17137;51.494;-0.262;2023-04-30T01:40:23;50304.35;;;-145.72;81.06
28648;BME280;17137;51.494;-0.262;2023-04-30T01:41:02;50311.75;;;-145.72;80.86
28648;BME280;17137;51.494;-0.262;2023-04-30T01:41:45;50320.63;;;-145.72;81.65
28648;BME280;17137;51.494;-0.262;2023-04-30T01:42:21;50310.27;;;-145.72;81.49
28648;BME280;17137;51.494;-0.262;2023-04-30T01:42:59;50306.70;;;-145.72;81.19
28648;BME280;17137;51.494;-0.262;2023-04-30T01:43:38;50307.68;;;-145.72;81.00
28648;BME280;17137;51.494;-0.262;2023-04-30T01:44:31;50322.35;;;-145.72;82.26
28648;BME280;17137;51.494;-0.262;2023-04-30T01:45:17;50319.15;;;-145.72;81.85
28648;BME280;17137;51.494;-0.262;2023-04-30T01:46:03;50314.71;;;-145.72;81.92
28648;BME280;17137;51.494;-0.262;2023-04-30T01:46:37;50320.87;;;-145.72;81.82
28648;BME280;17137;51.494;-0.262;2023-04-30T01:47:14;50305.71;;;-145.72;81.47
28648;BME280;17137;51.494;-0.262;2023-04-30T01:47:53;50307.19;;;-145.72;81.05
28648;BME280;17137;51.494;-0.262;2023-04-30T01:48:31;50294.86;;;-145.72;80.81
28648;BME280;17137;51.494;-0.262;2023-04-30T01:49:13;50305.09;;;-145.72;80.99
28648;BME280;17137;51.494;-0.262;2023-04-30T01:49:53;50301.03;;;-145.72;80.73
28648;BME280;17137;51.494;-0.262;2023-04-30T01:50:36;50312.12;;;-145.72;80.90
28648;BME280;17137;51.494;-0.262;2023-04-30T01:51:15;50311.01;;;-145.72;80.86
28648;BME280;17137;51.494;-0.262;2023-04-30T01:51:54;50320.01;;;-145.72;81.24
28648;BME280;17137;51.494;-0.262;2023-04-30T01:52:33;50325.06;;;-145.72;81.66
28648;BME280;17137;51.494;-0.262;2023-04-30T01:53:09;50327.78;;;-145.72;81.44
28648;BME280;17137;51.494;-0.262;2023-04-30T01:53:44;50316.44;;;-145.72;81.53
28648;BME280;17137;51.494;-0.262;2023-04-30T01:54:20;50319.64;;;-145.72;81.30
28648;BME280;17137;51.494;-0.262;2023-04-30T01:54:59;50305.46;;;-145.72;81.22
28648;BME280;17137;51.494;-0.262;2023-04-30T01:55:35;50319.27;;;-145.72;81.49
28648;BME280;17137;51.494;-0.262;2023-04-30T01:56:10;50319.39;;;-145.72;81.22
28648;BME280;17137;51.494;-0.262;2023-04-30T01:56:46;50318.28;;;-145.72;81.14
28648;BME280;17137;51.494;-0.262;2023-04-30T01:57:22;50311.50;;;-145.72;80.87
28648;BME280;17137;51.494;-0.262;2023-04-30T01:57:57;50304.23;;;-145.72;80.73
28648;BME280;17137;51.494;-0.262;2023-04-30T01:58:29;50307.07;;;-145.72;80.52
28648;BME280;17137;51.494;-0.262;2023-04-30T01:59:00;50320.50;;;-145.72;80.35
28648;BME280;17137;51.494;-0.262;2023-04-30T01:59:33;50299.79;;;-145.72;80.07
28648;BME280;17137;51.494;-0.262;2023-04-30T02:00:05;50311.50;;;-145.72;79.92
28648;BME280;17137;51.494;-0.262;2023-04-30T02:00:36;50314.71;;;-145.72;79.99
28648;BME280;17137;51.494;-0.262;2023-04-30T02:01:06;50292.15;;;-145.72;80.10
28648;BME280;17137;51.494;-0.262;2023-04-30T02:01:37;50303.25;;;-145.72;80.32
28648;BME280;17137;51.494;-0.262;2023-04-30T02:02:07;50305.34;;;-145.72;80.29
28648;BME280;17137;51.494;-0.262;2023-04-30T02:02:37;50301.15;;;-145.72;80.13
28648;BME280;17137;51.494;-0.262;2023-04-30T02:03:08;50301.40;;;-145.72;79.99
28648;BME280;17137;51.494;-0.262;2023-04-30T02:03:38;50309.29;;;-145.72;80.20
28648;BME280;17137;51.494;-0.262;2023-04-30T02:04:08;50320.38;;;-145.72;80.79
28648;BME280;17137;51.494;-0.262;2023-04-30T02:04:39;50309.66;;;-145.72;80.64
28648;BME280;17137;51.494;-0.262;2023-04-30T02:05:09;50311.75;;;-145.72;80.56
28648;BME280;17137;51.494;-0.262;2023-04-30T02:05:39;50305.71;;;-145.72;80.25
28648;BME280;17137;51.494;-0.262;2023-04-30T02:06:09;50319.89;;;-145.72;80.91
28648;BME280;17137;51.494;-0.262;2023-04-30T02:06:40;50316.56;;;-145.72;80.70
28648;BME280;17137;51.494;-0.262;2023-04-30T02:07:11;50309.29;;;-145.72;80.54
28648;BME280;17137;51.494;-0.262;2023-04-30T02:07:48;50311.26;;;-145.72;80.30
28648;BME280;17137;51.494;-0.262;2023-04-30T02:08:24;50312.98;;;-145.72;80.33
28648;BME280;17137;51.494;-0.262;2023-04-30T02:08:54;50312.74;;;-145.72;80.40
28648;BME280;17137;51.494;-0.262;2023-04-30T02:09:25;50311.87;;;-145.72;80.53
28648;BME280;17137;51.494;-0.262;2023-04-30T02:09:55;50307.93;;;-145.72;80.15
28648;BME280;17137;51.494;-0.262;2023-04-30T02:10:27;50315.33;;;-145.72;80.32
28648;BME280;17137;51.494;-0.262;2023-04-30T02:10:57;50319.76;;;-145.72;80.12
28648;BME280;17137;51.494;-0.262;2023-04-30T02:11:28;50318.04;;;-145.72;80.17
28648;BME280;17137;51.494;-0.262;2023-04-30T02:11:58;50309.66;;;-145.72;79.92
28648;BME280;17137;51.494;-0.262;2023-04-30T02:12:28;50300.90;;;-145.72;79.80
28648;BME280;17137;51.494;-0.262;2023-04-30T02:12:59;50307.31;;;-145.72;79.95
28648;BME280;17137;51.494;-0.262;2023-04-30T02:13:29;50315.70;;;-145.72;80.03
28648;BME280;17137;51.494;-0.262;2023-04-30T02:13:59;50302.75;;;-145.72;79.95
28648;BME280;17137;51.494;-0.262;2023-04-30T02:14:30;50307.07;;;-145.72;79.87
28648;BME280;17137;51.494;-0.262;2023-04-30T02:15:01;50316.56;;;-145.72;79.79
28648;BME280;17137;51.494;-0.262;2023-04-30T02:15:31;50316.44;;;-145.72;79.84
28648;BME280;17137;51.494;-0.262;2023-04-30T02:16:02;50319.02;;;-145.72;79.94
28648;BME280;17137;51.494;-0.262;2023-04-30T02:16:32;50288.45;;;-145.72;79.80
28648;BME280;17137;51.494;-0.262;2023-04-30T02:17:02;50316.68;;;-145.72;79.52
28648;BME280;17137;51.494;-0.262;2023-04-30T02:17:32;50318.28;;;-145.72;79.42
28648;BME280;17137;51.494;-0.262;2023-04-30T02:18:03;50316.81;;;-145.72;79.31
28648;BME280;17137;51.494;-0.262;2023-04-30T02:18:33;50316.31;;;-145.72;79.37
28648;BME280;17137;51.494;-0.262;2023-04-30T02:19:04;50309.66;;;-145.72;79.27
28648;BME280;17137;51.494;-0.262;2023-04-30T02:19:34;50311.87;;;-145.72;79.38
28648;BME280;17137;51.494;-0.262;2023-04-30T02:20:06;50308.42;;;-145.72;79.76
28648;BME280;17137;51.494;-0.262;2023-04-30T02:20:36;50325.56;;;-145.72;79.80
28648;BME280;17137;51.494;-0.262;2023-04-30T02:21:07;50329.63;;;-145.72;79.82
28648;BME280;17137;51.494;-0.262;2023-04-30T02:21:42;50309.16;;;-145.72;80.01
28648;BME280;17137;51.494;-0.262;2023-04-30T02:22:12;50327.65;;;-145.72;79.91
28648;BME280;17137;51.494;-0.262;2023-04-30T02:22:43;50316.31;;;-145.72;79.82
28648;BME280;17137;51.494;-0.262;2023-04-30T02:23:14;50314.96;;;-145.72;80.00
28648;BME280;17137;51.494;-0.262;2023-04-30T02:23:44;50320.63;;;-145.72;79.99
28648;BME280;17137;51.494;-0.262;2023-04-30T02:24:15;50308.67;;;-145.72;79.97
28648;BME280;17137;51.494;-0.262;2023-04-30T02:24:45;50318.41;;;-145.72;79.74
28648;BME280;17137;51.494;-0.262;2023-04-30T02:25:15;50300.90;;;-145.72;79.54
28648;BME280;17137;51.494;-0.262;2023-04-30T02:25:45;50312.37;;;-145.72;79.33
28648;BME280;17137;51.494;-0.262;2023-04-30T02:26:16;50312.00;;;-145.72;79.32
28648;BME280;17137;51.494;-0.262;2023-04-30T02:26:46;50319.52;;;-145.72;79.33
28648;BME280;17137;51.494;-0.262;2023-04-30T02:27:17;50307.68;;;-145.72;79.54
28648;BME280;17137;51.494;-0.262;2023-04-30T02:27:47;50321.74;;;-145.72;79.67
28648;BME280;17137;51.494;-0.262;2023-04-30T02:28:17;50309.90;;;-145.72;79.59
28648;BME280;17137;51.494;-0.262;2023-04-30T02:28:48;50303.49;;;-145.72;79.47
28648;BME280;17137;51.494;-0.262;2023-04-30T02:29:18;50324.69;;;-145.72;80.04
28648;BME280;17137;51.494;-0.262;2023-04-30T02:29:49;50314.96;;;-145.72;79.87
28648;BME280;17137;51.494;-0.262;2023-04-30T02:30:19;50321.86;;;-145.72;79.77
28648;BME280;17137;51.494;-0.262;2023-04-30T02:30:49;50322.48;;;-145.72;79.62
28648;BME280;17137;51.494;-0.262;2023-04-30T02:31:19;50313.60;;;-145.72;79.40
28648;BME280;17137;51.494;-0.262;2023-04-30T02:31:50;50320.13;;;-145.72;79.83
28648;BME280;17137;51.494;-0.262;2023-04-30T02:32:20;50325.19;;;-145.72;79.83
28648;BME280;17137;51.494;-0.262;2023-04-30T02:32:50;50309.90;;;-145.72;79.69
28648;BME280;17137;51.494;-0.262;2023-04-30T02:33:21;50318.28;;;-145.72;79.67
28648;BME280;17137;51.494;-0.262;2023-04-30T02:33:51;50312.49;;;-145.72;79.70
28648;BME280;17137;51.494;-0.262;2023-04-30T02:34:21;50316.07;;;-145.72;79.73
28648;BME280;17137;51.494;-0.262;2023-04-30T02:34:51;50323.83;;;-145.72;80.24
28648;BME280;17137;51.494;-0.262;2023-04-30T02:35:22;50325.31;;;-145.72;80.72
28648;BME280;17137;51.494;-0.262;2023-04-30T02:35:53;50331.84;;;-145.72;80.99
28648;BME280;17137;51.494;-0.262;2023-04-30T02:36:23;50319.64;;;-145.72;80.51
28648;BME280;17137;51.494;-0.262;2023-04-30T02:36:53;50331.23;;;-145.72;80.46
28648;BME280;17137;51.494;-0.262;2023-04-30T02:37:24;50321.37;;;-145.72;80.33
28648;BME280;17137;51.494;-0.262;2023-04-30T02:37:54;50324.32;;;-145.72;80.30
28648;BME280;17137;51.494;-0.262;2023-04-30T02:38:25;50314.59;;;-145.72;80.04
28648;BME280;17137;51.494;-0.262;2023-04-30T02:38:55;50322.11;;;-145.72;79.87
28648;BME280;17137;51.494;-0.262;2023-04-30T02:39:26;50321.74;;;-145.72;79.91
28648;BME280;17137;51.494;-0.262;2023-04-30T02:39:56;50309.41;;;-145.72;79.72
28648;BME280;17137;51.494;-0.262;2023-04-30T02:40:26;50307.56;;;-145.72;79.56
28648;BME280;17137;51.494;-0.262;2023-04-30T02:40:57;50314.22;;;-145.72;79.43
28648;BME280;17137;51.494;-0.262;2023-04-30T02:41:27;50317.91;;;-145.72;79.32
28648;BME280;17137;51.494;-0.262;2023-04-30T02:41:58;50304.97;;;-145.72;79.40
28648;BME280;17137;51.494;-0.262;2023-04-30T02:42:29;50312.12;;;-145.72;79.51
28648;BME280;17137;51.494;-0.262;2023-04-30T02:42:59;50299.92;;;-145.72;79.46
28648;BME280;17137;51.494;-0.262;2023-04-30T02:43:29;50313.23;;;-145.72;79.52
28648;BME280;17137;51.494;-0.262;2023-04-30T02:43:59;50320.13;;;-145.72;79.59
28648;BME280;17137;51.494;-0.262;2023-04-30T02:44:30;50320.63;;;-145.72;79.71
28648;BME280;17137;51.494;-0.262;2023-04-30T02:45:00;50312.37;;;-145.72;79.66
28648;BME280;17137;51.494;-0.262;2023-04-30T02:45:30;50310.64;;;-145.72;79.71
28648;BME280;17137;51.494;-0.262;2023-04-30T02:46:01;50313.97;;;-145.72;79.66